Terminal Aerodrome Forecast
Issued by NWS

Home | Current Version | Previous Version | Text Only | Print | Product List | Glossary On
Versions: 1 2 3 4 5 6 7 8 9 10 11 12 13 14 15 16 17 18 19 20 21 22 23
000
FTUS42 KFFC 180131 AAA
TAFFTY
TAF AMD
KFTY 180131Z 1802/1824 26008KT P6SM VCSH SCT025 BKN080
      TEMPO 1802/1805 -SHRA BKN020
     FM180500 32008KT P6SM OVC015
     FM181200 35005KT P6SM SCT010 SCT250
     FM181500 04005KT P6SM SCT040 SCT090 SCT250
     FM182000 12006KT P6SM SCT025 BKN040=

USA.gov is the U.S. government's official web portal to all federal, state and local government web resources and services.